sensor_id;sensor_type;location;lat;lon;timestamp;pressure;altitude;pressure_sealevel;temperature
13570;BMP180;6856;51.460;7.158;2023-02-13T00:01:42;102543.00;;;13.10
13570;BMP180;6856;51.460;7.158;2023-02-13T00:04:15;102524.00;;;13.10
13570;BMP180;6856;51.460;7.158;2023-02-13T00:06:52;102533.00;;;13.10
13570;BMP180;6856;51.460;7.158;2023-02-13T00:09:26;102524.00;;;13.10
13570;BMP180;6856;51.460;7.158;2023-02-13T00:12:01;102520.00;;;13.10
13570;BMP180;6856;51.460;7.158;2023-02-13T00:14:34;102512.00;;;13.10
13570;BMP180;6856;51.460;7.158;2023-02-13T00:17:08;102517.00;;;13.10
13570;BMP180;6856;51.460;7.158;2023-02-13T00:19:42;102520.00;;;13.10
13570;BMP180;6856;51.460;7.158;2023-02-13T00:22:15;102506.00;;;13.10
13570;BMP180;6856;51.460;7.158;2023-02-13T00:24:49;102508.00;;;13.10
13570;BMP180;6856;51.460;7.158;2023-02-13T00:27:24;102518.00;;;13.10
13570;BMP180;6856;51.460;7.158;2023-02-13T00:29:58;102508.00;;;13.10
13570;BMP180;6856;51.460;7.158;2023-02-13T00:32:32;102509.00;;;13.10
13570;BMP180;6856;51.460;7.158;2023-02-13T00:35:06;102507.00;;;13.10
13570;BMP180;6856;51.460;7.158;2023-02-13T00:37:40;102507.00;;;13.10
13570;BMP180;6856;51.460;7.158;2023-02-13T00:40:13;102506.00;;;13.00
13570;BMP180;6856;51.460;7.158;2023-02-13T00:42:48;102501.00;;;13.00
13570;BMP180;6856;51.460;7.158;2023-02-13T00:45:22;102506.00;;;13.00
13570;BMP180;6856;51.460;7.158;2023-02-13T00:47:56;102504.00;;;13.00
13570;BMP180;6856;51.460;7.158;2023-02-13T00:50:29;102509.00;;;13.00
13570;BMP180;6856;51.460;7.158;2023-02-13T00:53:03;102505.00;;;13.00
13570;BMP180;6856;51.460;7.158;2023-02-13T00:55:37;102508.00;;;13.00
13570;BMP180;6856;51.460;7.158;2023-02-13T00:58:13;102512.00;;;13.00
13570;BMP180;6856;51.460;7.158;2023-02-13T01:00:47;102518.00;;;13.00
13570;BMP180;6856;51.460;7.158;2023-02-13T01:03:23;102509.00;;;13.00
13570;BMP180;6856;51.460;7.158;2023-02-13T01:05:57;102510.00;;;13.00
13570;BMP180;6856;51.460;7.158;2023-02-13T01:08:31;102505.00;;;13.00
13570;BMP180;6856;51.460;7.158;2023-02-13T01:11:05;102490.00;;;13.00
13570;BMP180;6856;51.460;7.158;2023-02-13T01:13:41;102515.00;;;13.00
13570;BMP180;6856;51.460;7.158;2023-02-13T01:16:15;102507.00;;;13.00
13570;BMP180;6856;51.460;7.158;2023-02-13T01:18:49;102500.00;;;13.00
13570;BMP180;6856;51.460;7.158;2023-02-13T01:21:22;102497.00;;;13.00
13570;BMP180;6856;51.460;7.158;2023-02-13T01:23:56;102486.00;;;13.00
13570;BMP180;6856;51.460;7.158;2023-02-13T01:26:30;102497.00;;;13.00
13570;BMP180;6856;51.460;7.158;2023-02-13T01:29:05;102500.00;;;13.00
13570;BMP180;6856;51.460;7.158;2023-02-13T01:31:40;102497.00;;;12.90
13570;BMP180;6856;51.460;7.158;2023-02-13T01:34:14;102506.00;;;12.90
13570;BMP180;6856;51.460;7.158;2023-02-13T01:36:47;102500.00;;;12.90
13570;BMP180;6856;51.460;7.158;2023-02-13T01:39:21;102501.00;;;12.90
13570;BMP180;6856;51.460;7.158;2023-02-13T01:41:55;102501.00;;;12.90
13570;BMP180;6856;51.460;7.158;2023-02-13T01:44:51;102503.00;;;12.90
13570;BMP180;6856;51.460;7.158;2023-02-13T01:47:31;102502.00;;;12.90
13570;BMP180;6856;51.460;7.158;2023-02-13T01:50:10;102494.00;;;12.90
13570;BMP180;6856;51.460;7.158;2023-02-13T01:52:51;102502.00;;;12.90
13570;BMP180;6856;51.460;7.158;2023-02-13T01:55:27;102494.00;;;12.90
13570;BMP180;6856;51.460;7.158;2023-02-13T01:58:06;102498.00;;;12.80
13570;BMP180;6856;51.460;7.158;2023-02-13T02:00:44;102497.00;;;12.80
13570;BMP180;6856;51.460;7.158;2023-02-13T02:03:38;102490.00;;;12.80
13570;BMP180;6856;51.460;7.158;2023-02-13T02:06:20;102485.00;;;12.80
13570;BMP180;6856;51.460;7.158;2023-02-13T02:09:01;102490.00;;;12.70
13570;BMP180;6856;51.460;7.158;2023-02-13T02:11:42;102490.00;;;12.80
13570;BMP180;6856;51.460;7.158;2023-02-13T02:14:18;102490.00;;;12.70
13570;BMP180;6856;51.460;7.158;2023-02-13T02:16:53;102483.00;;;12.70
13570;BMP180;6856;51.460;7.158;2023-02-13T02:19:37;102478.00;;;12.70
13570;BMP180;6856;51.460;7.158;2023-02-13T02:25:56;102481.00;;;12.70
13570;BMP180;6856;51.460;7.158;2023-02-13T02:32:45;102477.00;;;12.60
13570;BMP180;6856;51.460;7.158;2023-02-13T02:35:33;102486.00;;;12.60
13570;BMP180;6856;51.460;7.158;2023-02-13T02:38:25;102482.00;;;12.60
13570;BMP180;6856;51.460;7.158;2023-02-13T02:41:09;102477.00;;;12.60
13570;BMP180;6856;51.460;7.158;2023-02-13T02:44:26;102464.00;;;12.50
13570;BMP180;6856;51.460;7.158;2023-02-13T02:47:19;102484.00;;;12.50
13570;BMP180;6856;51.460;7.158;2023-02-13T02:50:30;102464.00;;;12.40
13570;BMP180;6856;51.460;7.158;2023-02-13T02:53:22;102476.00;;;12.40
13570;BMP180;6856;51.460;7.158;2023-02-13T02:56:06;102460.00;;;12.40
13570;BMP180;6856;51.460;7.158;2023-02-13T02:58:50;102479.00;;;12.40
13570;BMP180;6856;51.460;7.158;2023-02-13T03:01:44;102475.00;;;12.30
13570;BMP180;6856;51.460;7.158;2023-02-13T03:04:41;102470.00;;;12.30
13570;BMP180;6856;51.460;7.158;2023-02-13T03:07:35;102452.00;;;12.30
13570;BMP180;6856;51.460;7.158;2023-02-13T03:10:11;102466.00;;;12.30
13570;BMP180;6856;51.460;7.158;2023-02-13T03:13:08;102470.00;;;12.20
13570;BMP180;6856;51.460;7.158;2023-02-13T03:15:59;102475.00;;;12.20
13570;BMP180;6856;51.460;7.158;2023-02-13T03:18:55;102460.00;;;12.20
13570;BMP180;6856;51.460;7.158;2023-02-13T03:21:52;102474.00;;;12.20
13570;BMP180;6856;51.460;7.158;2023-02-13T03:24:59;102473.00;;;12.10
13570;BMP180;6856;51.460;7.158;2023-02-13T03:27:47;102470.00;;;12.10
13570;BMP180;6856;51.460;7.158;2023-02-13T03:30:56;102478.00;;;12.10
13570;BMP180;6856;51.460;7.158;2023-02-13T03:33:55;102480.00;;;12.10
13570;BMP180;6856;51.460;7.158;2023-02-13T03:36:42;102465.00;;;12.00
13570;BMP180;6856;51.460;7.158;2023-02-13T03:39:47;102475.00;;;12.00
13570;BMP180;6856;51.460;7.158;2023-02-13T03:42:32;102482.00;;;12.00
13570;BMP180;6856;51.460;7.158;2023-02-13T03:45:13;102487.00;;;12.00
13570;BMP180;6856;51.460;7.158;2023-02-13T03:48:07;102489.00;;;12.00
13570;BMP180;6856;51.460;7.158;2023-02-13T03:51:03;102494.00;;;12.00
13570;BMP180;6856;51.460;7.158;2023-02-13T03:53:41;102494.00;;;12.00
13570;BMP180;6856;51.460;7.158;2023-02-13T03:56:22;102503.00;;;12.00
13570;BMP180;6856;51.460;7.158;2023-02-13T03:59:21;102492.00;;;12.00
13570;BMP180;6856;51.460;7.158;2023-02-13T04:02:06;102493.00;;;11.90
13570;BMP180;6856;51.460;7.158;2023-02-13T04:04:50;102498.00;;;11.90
13570;BMP180;6856;51.460;7.158;2023-02-13T04:07:25;102494.00;;;11.90
13570;BMP180;6856;51.460;7.158;2023-02-13T04:10:08;102499.00;;;11.80
13570;BMP180;6856;51.460;7.158;2023-02-13T04:12:54;102497.00;;;11.80
13570;BMP180;6856;51.460;7.158;2023-02-13T04:15:37;102497.00;;;11.80
13570;BMP180;6856;51.460;7.158;2023-02-13T04:18:16;102470.00;;;11.80
13570;BMP180;6856;51.460;7.158;2023-02-13T04:20:51;102493.00;;;11.80
13570;BMP180;6856;51.460;7.158;2023-02-13T04:23:26;102489.00;;;11.90
13570;BMP180;6856;51.460;7.158;2023-02-13T04:26:05;102490.00;;;11.90
13570;BMP180;6856;51.460;7.158;2023-02-13T04:28:41;102483.00;;;11.90
13570;BMP180;6856;51.460;7.158;2023-02-13T04:31:14;102481.00;;;11.90
13570;BMP180;6856;51.460;7.158;2023-02-13T04:33:48;102483.00;;;11.90
13570;BMP180;6856;51.460;7.158;2023-02-13T04:36:22;102488.00;;;11.90
13570;BMP180;6856;51.460;7.158;2023-02-13T04:38:55;102494.00;;;11.90
13570;BMP180;6856;51.460;7.158;2023-02-13T04:41:29;102492.00;;;11.90
13570;BMP180;6856;51.460;7.158;2023-02-13T04:44:04;102494.00;;;11.90
13570;BMP180;6856;51.460;7.158;2023-02-13T04:46:38;102486.00;;;11.90
13570;BMP180;6856;51.460;7.158;2023-02-13T04:49:11;102481.00;;;11.90
13570;BMP180;6856;51.460;7.158;2023-02-13T04:51:45;102480.00;;;11.90
13570;BMP180;6856;51.460;7.158;2023-02-13T04:54:19;102482.00;;;11.90
13570;BMP180;6856;51.460;7.158;2023-02-13T04:56:53;102477.00;;;11.90
13570;BMP180;6856;51.460;7.158;2023-02-13T04:59:28;102464.00;;;11.90
13570;BMP180;6856;51.460;7.158;2023-02-13T05:02:03;102476.00;;;11.90
13570;BMP180;6856;51.460;7.158;2023-02-13T05:04:36;102460.00;;;11.90
13570;BMP180;6856;51.460;7.158;2023-02-13T05:07:11;102471.00;;;11.90
13570;BMP180;6856;51.460;7.158;2023-02-13T05:09:45;102482.00;;;11.90
13570;BMP180;6856;51.460;7.158;2023-02-13T05:12:19;102481.00;;;11.90
13570;BMP180;6856;51.460;7.158;2023-02-13T05:14:55;102484.00;;;11.90
13570;BMP180;6856;51.460;7.158;2023-02-13T05:17:28;102479.00;;;11.90
13570;BMP180;6856;51.460;7.158;2023-02-13T05:20:02;102474.00;;;11.90
13570;BMP180;6856;51.460;7.158;2023-02-13T05:22:36;102474.00;;;11.90
13570;BMP180;6856;51.460;7.158;2023-02-13T05:25:27;102473.00;;;11.90
13570;BMP180;6856;51.460;7.158;2023-02-13T05:32:38;102468.00;;;11.80
13570;BMP180;6856;51.460;7.158;2023-02-13T05:39:49;102467.00;;;11.70
13570;BMP180;6856;51.460;7.158;2023-02-13T05:42:22;102464.00;;;11.70
13570;BMP180;6856;51.460;7.158;2023-02-13T05:44:56;102452.00;;;11.70
13570;BMP180;6856;51.460;7.158;2023-02-13T05:47:30;102464.00;;;11.70
13570;BMP180;6856;51.460;7.158;2023-02-13T05:54:40;102467.00;;;11.70
13570;BMP180;6856;51.460;7.158;2023-02-13T05:57:13;102468.00;;;11.70
13570;BMP180;6856;51.460;7.158;2023-02-13T05:59:47;102466.00;;;11.70
13570;BMP180;6856;51.460;7.158;2023-02-13T06:02:21;102474.00;;;11.70
13570;BMP180;6856;51.460;7.158;2023-02-13T06:04:55;102470.00;;;11.70
13570;BMP180;6856;51.460;7.158;2023-02-13T06:07:29;102476.00;;;11.80
13570;BMP180;6856;51.460;7.158;2023-02-13T06:10:05;102475.00;;;11.80
13570;BMP180;6856;51.460;7.158;2023-02-13T06:12:39;102474.00;;;11.80
13570;BMP180;6856;51.460;7.158;2023-02-13T06:19:48;102463.00;;;11.70
13570;BMP180;6856;51.460;7.158;2023-02-13T06:22:21;102466.00;;;11.70
13570;BMP180;6856;51.460;7.158;2023-02-13T06:24:55;102452.00;;;11.70
13570;BMP180;6856;51.460;7.158;2023-02-13T06:32:06;102458.00;;;11.60
13570;BMP180;6856;51.460;7.158;2023-02-13T06:34:39;102459.00;;;11.60
13570;BMP180;6856;51.460;7.158;2023-02-13T06:37:13;102464.00;;;11.70
13570;BMP180;6856;51.460;7.158;2023-02-13T06:39:47;102461.00;;;11.70
13570;BMP180;6856;51.460;7.158;2023-02-13T06:42:20;102452.00;;;11.70
13570;BMP180;6856;51.460;7.158;2023-02-13T06:44:54;102454.00;;;11.70
13570;BMP180;6856;51.460;7.158;2023-02-13T06:47:29;102444.00;;;11.70
13570;BMP180;6856;51.460;7.158;2023-02-13T06:50:04;102453.00;;;11.70
13570;BMP180;6856;51.460;7.158;2023-02-13T06:52:38;102456.00;;;11.70
13570;BMP180;6856;51.460;7.158;2023-02-13T06:59:48;102461.00;;;11.50
13570;BMP180;6856;51.460;7.158;2023-02-13T07:02:21;102460.00;;;11.50
13570;BMP180;6856;51.460;7.158;2023-02-13T07:04:56;102460.00;;;11.50
13570;BMP180;6856;51.460;7.158;2023-02-13T07:07:32;102461.00;;;11.50
13570;BMP180;6856;51.460;7.158;2023-02-13T07:10:10;102464.00;;;11.40
13570;BMP180;6856;51.460;7.158;2023-02-13T07:12:44;102464.00;;;11.40
13570;BMP180;6856;51.460;7.158;2023-02-13T07:15:35;102471.00;;;11.40
13570;BMP180;6856;51.460;7.158;2023-02-13T07:18:09;102472.00;;;11.40
13570;BMP180;6856;51.460;7.158;2023-02-13T07:20:44;102464.00;;;11.40
13570;BMP180;6856;51.460;7.158;2023-02-13T07:23:18;102470.00;;;11.30
13570;BMP180;6856;51.460;7.158;2023-02-13T07:30:28;102474.00;;;11.20
13570;BMP180;6856;51.460;7.158;2023-02-13T07:33:04;102477.00;;;11.20
13570;BMP180;6856;51.460;7.158;2023-02-13T07:35:37;102474.00;;;11.20
13570;BMP180;6856;51.460;7.158;2023-02-13T07:38:15;102475.00;;;11.10
13570;BMP180;6856;51.460;7.158;2023-02-13T07:45:24;102481.00;;;11.10
13570;BMP180;6856;51.460;7.158;2023-02-13T07:47:58;102484.00;;;11.00
13570;BMP180;6856;51.460;7.158;2023-02-13T07:50:32;102487.00;;;11.00
13570;BMP180;6856;51.460;7.158;2023-02-13T07:53:06;102486.00;;;11.00
13570;BMP180;6856;51.460;7.158;2023-02-13T07:55:41;102484.00;;;11.00
13570;BMP180;6856;51.460;7.158;2023-02-13T07:58:14;102484.00;;;11.00
13570;BMP180;6856;51.460;7.158;2023-02-13T08:05:25;102490.00;;;11.00
13570;BMP180;6856;51.460;7.158;2023-02-13T08:07:58;102496.00;;;11.00
13570;BMP180;6856;51.460;7.158;2023-02-13T08:15:11;102492.00;;;11.00
13570;BMP180;6856;51.460;7.158;2023-02-13T08:17:45;102501.00;;;11.10
13570;BMP180;6856;51.460;7.158;2023-02-13T08:20:19;102482.00;;;11.10
13570;BMP180;6856;51.460;7.158;2023-02-13T08:22:52;102486.00;;;11.10
13570;BMP180;6856;51.460;7.158;2023-02-13T08:30:04;102492.00;;;11.20
13570;BMP180;6856;51.460;7.158;2023-02-13T08:37:15;102500.00;;;11.30
13570;BMP180;6856;51.460;7.158;2023-02-13T08:39:49;102500.00;;;11.40
13570;BMP180;6856;51.460;7.158;2023-02-13T08:42:23;102501.00;;;11.40
13570;BMP180;6856;51.460;7.158;2023-02-13T08:44:56;102503.00;;;11.50
13570;BMP180;6856;51.460;7.158;2023-02-13T08:47:31;102482.00;;;11.60
13570;BMP180;6856;51.460;7.158;2023-02-13T08:50:06;102496.00;;;11.60
13570;BMP180;6856;51.460;7.158;2023-02-13T08:52:49;102497.00;;;11.70
13570;BMP180;6856;51.460;7.158;2023-02-13T08:55:23;102493.00;;;11.80
13570;BMP180;6856;51.460;7.158;2023-02-13T08:57:59;102515.00;;;11.80
13570;BMP180;6856;51.460;7.158;2023-02-13T09:00:33;102503.00;;;11.90
13570;BMP180;6856;51.460;7.158;2023-02-13T09:03:07;102503.00;;;12.00
13570;BMP180;6856;51.460;7.158;2023-02-13T09:05:42;102497.00;;;12.00
13570;BMP180;6856;51.460;7.158;2023-02-13T09:08:20;102508.00;;;12.10
13570;BMP180;6856;51.460;7.158;2023-02-13T09:10:58;102502.00;;;12.20
13570;BMP180;6856;51.460;7.158;2023-02-13T09:13:35;102496.00;;;12.20
13570;BMP180;6856;51.460;7.158;2023-02-13T09:20:44;102497.00;;;12.30
13570;BMP180;6856;51.460;7.158;2023-02-13T09:23:19;102497.00;;;12.30
13570;BMP180;6856;51.460;7.158;2023-02-13T09:25:53;102498.00;;;12.40
13570;BMP180;6856;51.460;7.158;2023-02-13T09:28:28;102502.00;;;12.50
13570;BMP180;6856;51.460;7.158;2023-02-13T09:31:05;102500.00;;;12.60
13570;BMP180;6856;51.460;7.158;2023-02-13T09:33:39;102495.00;;;12.70
13570;BMP180;6856;51.460;7.158;2023-02-13T09:36:15;102495.00;;;12.70
13570;BMP180;6856;51.460;7.158;2023-02-13T09:43:35;102493.00;;;12.90
13570;BMP180;6856;51.460;7.158;2023-02-13T09:46:15;102500.00;;;12.90
13570;BMP180;6856;51.460;7.158;2023-02-13T09:48:53;102502.00;;;13.00
13570;BMP180;6856;51.460;7.158;2023-02-13T09:51:28;102498.00;;;13.10
13570;BMP180;6856;51.460;7.158;2023-02-13T09:54:05;102492.00;;;13.20
13570;BMP180;6856;51.460;7.158;2023-02-13T09:56:49;102496.00;;;13.30
13570;BMP180;6856;51.460;7.158;2023-02-13T09:59:45;102502.00;;;13.50
13570;BMP180;6856;51.460;7.158;2023-02-13T10:02:49;102502.00;;;13.60
13570;BMP180;6856;51.460;7.158;2023-02-13T10:05:50;102516.00;;;13.70
13570;BMP180;6856;51.460;7.158;2023-02-13T10:08:52;102502.00;;;13.80
13570;BMP180;6856;51.460;7.158;2023-02-13T10:11:45;102505.00;;;13.80
13570;BMP180;6856;51.460;7.158;2023-02-13T10:14:26;102509.00;;;13.90
13570;BMP180;6856;51.460;7.158;2023-02-13T10:21:49;102512.00;;;14.10
13570;BMP180;6856;51.460;7.158;2023-02-13T10:24:33;102516.00;;;14.20
13570;BMP180;6856;51.460;7.158;2023-02-13T10:27:20;102513.00;;;14.30
13570;BMP180;6856;51.460;7.158;2023-02-13T10:29:58;102520.00;;;14.40
13570;BMP180;6856;51.460;7.158;2023-02-13T10:32:59;102514.00;;;14.50
13570;BMP180;6856;51.460;7.158;2023-02-13T10:36:00;102517.00;;;14.60
13570;BMP180;6856;51.460;7.158;2023-02-13T10:38:43;102515.00;;;14.70
13570;BMP180;6856;51.460;7.158;2023-02-13T10:41:24;102514.00;;;14.80
13570;BMP180;6856;51.460;7.158;2023-02-13T10:44:28;102503.00;;;14.90
13570;BMP180;6856;51.460;7.158;2023-02-13T10:47:20;102502.00;;;15.00
13570;BMP180;6856;51.460;7.158;2023-02-13T10:50:14;102494.00;;;15.10
13570;BMP180;6856;51.460;7.158;2023-02-13T10:52:59;102498.00;;;15.20
13570;BMP180;6856;51.460;7.158;2023-02-13T10:56:05;102493.00;;;15.20
13570;BMP180;6856;51.460;7.158;2023-02-13T10:59:01;102493.00;;;15.30
13570;BMP180;6856;51.460;7.158;2023-02-13T11:01:46;102485.00;;;15.40
13570;BMP180;6856;51.460;7.158;2023-02-13T11:04:22;102491.00;;;15.50
13570;BMP180;6856;51.460;7.158;2023-02-13T11:11:37;102486.00;;;15.70
13570;BMP180;6856;51.460;7.158;2023-02-13T11:14:16;102478.00;;;15.70
13570;BMP180;6856;51.460;7.158;2023-02-13T11:16:55;102479.00;;;15.80
13570;BMP180;6856;51.460;7.158;2023-02-13T11:19:33;102466.00;;;15.90
13570;BMP180;6856;51.460;7.158;2023-02-13T11:22:12;102465.00;;;16.00
13570;BMP180;6856;51.460;7.158;2023-02-13T11:24:55;102454.00;;;16.10
13570;BMP180;6856;51.460;7.158;2023-02-13T11:27:36;102458.00;;;16.20
13570;BMP180;6856;51.460;7.158;2023-02-13T11:30:31;102459.00;;;16.20
13570;BMP180;6856;51.460;7.158;2023-02-13T11:33:21;102463.00;;;16.40
13570;BMP180;6856;51.460;7.158;2023-02-13T11:36:06;102466.00;;;16.40
13570;BMP180;6856;51.460;7.158;2023-02-13T11:38:41;102451.00;;;16.50
13570;BMP180;6856;51.460;7.158;2023-02-13T11:41:18;102455.00;;;16.60
13570;BMP180;6856;51.460;7.158;2023-02-13T11:43:57;102458.00;;;16.70
13570;BMP180;6856;51.460;7.158;2023-02-13T11:46:46;102438.00;;;16.80
13570;BMP180;6856;51.460;7.158;2023-02-13T11:49:22;102450.00;;;16.90
13570;BMP180;6856;51.460;7.158;2023-02-13T11:52:00;102446.00;;;17.00
13570;BMP180;6856;51.460;7.158;2023-02-13T11:54:37;102447.00;;;17.00
13570;BMP180;6856;51.460;7.158;2023-02-13T11:57:21;102445.00;;;17.10
13570;BMP180;6856;51.460;7.158;2023-02-13T12:02:53;102449.00;;;17.30
13570;BMP180;6856;51.460;7.158;2023-02-13T12:05:28;102434.00;;;17.40
13570;BMP180;6856;51.460;7.158;2023-02-13T12:08:01;102432.00;;;17.40
13570;BMP180;6856;51.460;7.158;2023-02-13T12:10:37;102435.00;;;17.50
13570;BMP180;6856;51.460;7.158;2023-02-13T12:13:15;102432.00;;;17.50
13570;BMP180;6856;51.460;7.158;2023-02-13T12:15:59;102431.00;;;17.60
13570;BMP180;6856;51.460;7.158;2023-02-13T12:18:39;102422.00;;;17.60
13570;BMP180;6856;51.460;7.158;2023-02-13T12:26:17;102425.00;;;17.80
13570;BMP180;6856;51.460;7.158;2023-02-13T12:29:22;102412.00;;;17.90
13570;BMP180;6856;51.460;7.158;2023-02-13T12:36:20;102402.00;;;18.00
13570;BMP180;6856;51.460;7.158;2023-02-13T12:39:15;102393.00;;;18.10
13570;BMP180;6856;51.460;7.158;2023-02-13T12:46:07;102394.00;;;18.20
13570;BMP180;6856;51.460;7.158;2023-02-13T12:48:50;102385.00;;;18.30
13570;BMP180;6856;51.460;7.158;2023-02-13T12:51:40;102385.00;;;18.30
13570;BMP180;6856;51.460;7.158;2023-02-13T12:54:42;102377.00;;;18.40
13570;BMP180;6856;51.460;7.158;2023-02-13T12:57:38;102376.00;;;18.50
13570;BMP180;6856;51.460;7.158;2023-02-13T13:00:38;102375.00;;;18.60
13570;BMP180;6856;51.460;7.158;2023-02-13T13:03:38;102369.00;;;18.70
13570;BMP180;6856;51.460;7.158;2023-02-13T13:29:22;102364.00;;;19.30
13570;BMP180;6856;51.460;7.158;2023-02-13T13:32:04;102341.00;;;19.40
13570;BMP180;6856;51.460;7.158;2023-02-13T13:34:44;102347.00;;;19.30
13570;BMP180;6856;51.460;7.158;2023-02-13T13:37:30;102369.00;;;19.40
13570;BMP180;6856;51.460;7.158;2023-02-13T13:40:31;102334.00;;;19.60
13570;BMP180;6856;51.460;7.158;2023-02-13T13:43:20;102354.00;;;19.60
13570;BMP180;6856;51.460;7.158;2023-02-13T13:46:11;102329.00;;;19.60
13570;BMP180;6856;51.460;7.158;2023-02-13T13:49:11;102346.00;;;19.50
13570;BMP180;6856;51.460;7.158;2023-02-13T13:51:49;102360.00;;;19.70
13570;BMP180;6856;51.460;7.158;2023-02-13T13:54:35;102374.00;;;19.70
13570;BMP180;6856;51.460;7.158;2023-02-13T13:57:11;102325.00;;;19.70
13570;BMP180;6856;51.460;7.158;2023-02-13T14:00:02;102350.00;;;19.70
13570;BMP180;6856;51.460;7.158;2023-02-13T14:03:32;102328.00;;;19.70
13570;BMP180;6856;51.460;7.158;2023-02-13T14:06:14;102348.00;;;19.70
13570;BMP180;6856;51.460;7.158;2023-02-13T14:09:04;102359.00;;;19.70
13570;BMP180;6856;51.460;7.158;2023-02-13T14:11:43;102337.00;;;19.50
13570;BMP180;6856;51.460;7.158;2023-02-13T14:14:52;102335.00;;;19.60
13570;BMP180;6856;51.460;7.158;2023-02-13T14:17:54;102310.00;;;19.40
13570;BMP180;6856;51.460;7.158;2023-02-13T14:20:49;102306.00;;;19.40
13570;BMP180;6856;51.460;7.158;2023-02-13T14:23:36;102321.00;;;19.40
13570;BMP180;6856;51.460;7.158;2023-02-13T14:26:29;102347.00;;;19.20
13570;BMP180;6856;51.460;7.158;2023-02-13T14:29:31;102288.00;;;19.40
13570;BMP180;6856;51.460;7.158;2023-02-13T14:32:18;102331.00;;;19.30
13570;BMP180;6856;51.460;7.158;2023-02-13T14:35:00;102281.00;;;19.30
13570;BMP180;6856;51.460;7.158;2023-02-13T14:37:50;102307.00;;;19.20
13570;BMP180;6856;51.460;7.158;2023-02-13T14:40:47;102337.00;;;19.20
13570;BMP180;6856;51.460;7.158;2023-02-13T14:43:48;102315.00;;;19.10
13570;BMP180;6856;51.460;7.158;2023-02-13T14:46:33;102308.00;;;19.10
13570;BMP180;6856;51.460;7.158;2023-02-13T14:49:16;102288.00;;;19.10
13570;BMP180;6856;51.460;7.158;2023-02-13T14:51:56;102297.00;;;19.00
13570;BMP180;6856;51.460;7.158;2023-02-13T14:54:41;102316.00;;;18.90
13570;BMP180;6856;51.460;7.158;2023-02-13T14:57:21;102298.00;;;18.90
13570;BMP180;6856;51.460;7.158;2023-02-13T15:00:08;102318.00;;;18.90
13570;BMP180;6856;51.460;7.158;2023-02-13T15:02:51;102310.00;;;18.80
13570;BMP180;6856;51.460;7.158;2023-02-13T15:05:32;102296.00;;;18.80
13570;BMP180;6856;51.460;7.158;2023-02-13T15:08:15;102301.00;;;18.70
13570;BMP180;6856;51.460;7.158;2023-02-13T15:10:55;102324.00;;;18.70
13570;BMP180;6856;51.460;7.158;2023-02-13T15:13:35;102281.00;;;18.70
13570;BMP180;6856;51.460;7.158;2023-02-13T15:16:14;102298.00;;;18.70
13570;BMP180;6856;51.460;7.158;2023-02-13T15:18:50;102313.00;;;18.50
13570;BMP180;6856;51.460;7.158;2023-02-13T15:21:35;102314.00;;;18.60
13570;BMP180;6856;51.460;7.158;2023-02-13T15:24:13;102313.00;;;18.60
13570;BMP180;6856;51.460;7.158;2023-02-13T15:26:59;102297.00;;;18.40
13570;BMP180;6856;51.460;7.158;2023-02-13T15:29:52;102268.00;;;18.50
13570;BMP180;6856;51.460;7.158;2023-02-13T15:32:30;102301.00;;;18.40
13570;BMP180;6856;51.460;7.158;2023-02-13T15:35:22;102299.00;;;18.40
13570;BMP180;6856;51.460;7.158;2023-02-13T15:37:56;102293.00;;;18.30
13570;BMP180;6856;51.460;7.158;2023-02-13T15:40:40;102288.00;;;18.30
13570;BMP180;6856;51.460;7.158;2023-02-13T15:43:25;102289.00;;;18.30
13570;BMP180;6856;51.460;7.158;2023-02-13T15:46:04;102291.00;;;18.20
13570;BMP180;6856;51.460;7.158;2023-02-13T15:48:39;102293.00;;;18.20
13570;BMP180;6856;51.460;7.158;2023-02-13T15:51:18;102289.00;;;18.10
13570;BMP180;6856;51.460;7.158;2023-02-13T15:53:54;102294.00;;;18.10
13570;BMP180;6856;51.460;7.158;2023-02-13T15:56:29;102296.00;;;18.10
13570;BMP180;6856;51.460;7.158;2023-02-13T15:59:04;102291.00;;;18.00
13570;BMP180;6856;51.460;7.158;2023-02-13T16:01:39;102290.00;;;18.00
13570;BMP180;6856;51.460;7.158;2023-02-13T16:04:17;102291.00;;;17.90
13570;BMP180;6856;51.460;7.158;2023-02-13T16:06:55;102296.00;;;17.90
13570;BMP180;6856;51.460;7.158;2023-02-13T16:09:32;102296.00;;;17.80
13570;BMP180;6856;51.460;7.158;2023-02-13T16:12:19;102293.00;;;17.80
13570;BMP180;6856;51.460;7.158;2023-02-13T16:15:00;102294.00;;;17.70
13570;BMP180;6856;51.460;7.158;2023-02-13T16:17:38;102295.00;;;17.70
13570;BMP180;6856;51.460;7.158;2023-02-13T16:20:20;102291.00;;;17.60
13570;BMP180;6856;51.460;7.158;2023-02-13T16:23:00;102290.00;;;17.60
13570;BMP180;6856;51.460;7.158;2023-02-13T16:25:37;102292.00;;;17.50
13570;BMP180;6856;51.460;7.158;2023-02-13T16:28:17;102289.00;;;17.50
13570;BMP180;6856;51.460;7.158;2023-02-13T16:30:58;102285.00;;;17.40
13570;BMP180;6856;51.460;7.158;2023-02-13T16:33:34;102294.00;;;17.40
13570;BMP180;6856;51.460;7.158;2023-02-13T16:36:25;102286.00;;;17.30
13570;BMP180;6856;51.460;7.158;2023-02-13T16:39:14;102296.00;;;17.30
13570;BMP180;6856;51.460;7.158;2023-02-13T16:41:53;102300.00;;;17.20
13570;BMP180;6856;51.460;7.158;2023-02-13T16:44:29;102297.00;;;17.10
13570;BMP180;6856;51.460;7.158;2023-02-13T16:47:19;102295.00;;;17.10
13570;BMP180;6856;51.460;7.158;2023-02-13T16:49:56;102276.00;;;17.10
13570;BMP180;6856;51.460;7.158;2023-02-13T16:52:30;102283.00;;;17.10
13570;BMP180;6856;51.460;7.158;2023-02-13T16:55:13;102287.00;;;17.10
13570;BMP180;6856;51.460;7.158;2023-02-13T16:57:47;102292.00;;;17.00
13570;BMP180;6856;51.460;7.158;2023-02-13T17:00:23;102296.00;;;17.00
13570;BMP180;6856;51.460;7.158;2023-02-13T17:03:06;102305.00;;;16.90
13570;BMP180;6856;51.460;7.158;2023-02-13T17:05:41;102309.00;;;16.90
13570;BMP180;6856;51.460;7.158;2023-02-13T17:08:14;102314.00;;;16.80
13570;BMP180;6856;51.460;7.158;2023-02-13T17:11:03;102314.00;;;16.80
13570;BMP180;6856;51.460;7.158;2023-02-13T17:13:37;102309.00;;;16.70
13570;BMP180;6856;51.460;7.158;2023-02-13T17:16:13;102302.00;;;16.60
13570;BMP180;6856;51.460;7.158;2023-02-13T17:18:48;102313.00;;;16.60
13570;BMP180;6856;51.460;7.158;2023-02-13T17:21:22;102316.00;;;16.50
13570;BMP180;6856;51.460;7.158;2023-02-13T17:23:57;102313.00;;;16.50
13570;BMP180;6856;51.460;7.158;2023-02-13T17:26:31;102322.00;;;16.50
13570;BMP180;6856;51.460;7.158;2023-02-13T17:29:05;102318.00;;;16.40